sensor_id;sensor_type;location;lat;lon;timestamp;pressure;altitude;pressure_sealevel;temperature;humidity
33191;BME280;19554;42.652;23.364;2023-12-20T00:01:03;94993.41;;;2.97;67.81
33191;BME280;19554;42.652;23.364;2023-12-20T00:03:29;94990.78;;;2.85;67.75
33191;BME280;19554;42.652;23.364;2023-12-20T00:05:54;94955.38;;;2.57;67.96
33191;BME280;19554;42.652;23.364;2023-12-20T00:08:21;94982.66;;;2.75;68.53
33191;BME280;19554;42.652;23.364;2023-12-20T00:10:46;94980.47;;;2.72;69.26
33191;BME280;19554;42.652;23.364;2023-12-20T00:13:12;94949.41;;;2.50;69.33
33191;BME280;19554;42.652;23.364;2023-12-20T00:15:37;94979.78;;;2.65;69.29
33191;BME280;19554;42.652;23.364;2023-12-20T00:18:03;94989.88;;;2.68;69.28
33191;BME280;19554;42.652;23.364;2023-12-20T00:20:29;94976.22;;;2.71;69.07
33191;BME280;19554;42.652;23.364;2023-12-20T00:22:56;94974.25;;;2.66;68.49
33191;BME280;19554;42.652;23.364;2023-12-20T00:25:22;94951.00;;;2.51;68.71
33191;BME280;19554;42.652;23.364;2023-12-20T00:27:48;94967.75;;;2.69;69.01
33191;BME280;19554;42.652;23.364;2023-12-20T00:30:13;94959.25;;;2.67;69.33
33191;BME280;19554;42.652;23.364;2023-12-20T00:32:39;94940.34;;;2.70;69.17
33191;BME280;19554;42.652;23.364;2023-12-20T00:35:04;94952.84;;;2.86;70.66
33191;BME280;19554;42.652;23.364;2023-12-20T00:37:30;94915.28;;;2.67;71.49
33191;BME280;19554;42.652;23.364;2023-12-20T00:39:55;94934.63;;;2.84;72.15
33191;BME280;19554;42.652;23.364;2023-12-20T00:42:21;94915.25;;;2.79;72.28
33191;BME280;19554;42.652;23.364;2023-12-20T00:44:46;94923.41;;;2.77;69.74
33191;BME280;19554;42.652;23.364;2023-12-20T00:47:12;94919.94;;;2.77;69.73
33191;BME280;19554;42.652;23.364;2023-12-20T00:49:38;94928.88;;;2.76;68.91
33191;BME280;19554;42.652;23.364;2023-12-20T00:52:04;94929.94;;;2.75;68.64
33191;BME280;19554;42.652;23.364;2023-12-20T00:54:29;94920.66;;;2.60;68.94
33191;BME280;19554;42.652;23.364;2023-12-20T00:56:56;94912.53;;;2.50;69.08
33191;BME280;19554;42.652;23.364;2023-12-20T00:59:21;94929.13;;;2.63;69.57
33191;BME280;19554;42.652;23.364;2023-12-20T01:01:46;94924.91;;;2.61;70.19
33191;BME280;19554;42.652;23.364;2023-12-20T01:04:12;94925.81;;;2.55;70.58
33191;BME280;19554;42.652;23.364;2023-12-20T01:06:37;94912.88;;;2.54;70.38
33191;BME280;19554;42.652;23.364;2023-12-20T01:09:03;94856.41;;;2.14;70.87
33191;BME280;19554;42.652;23.364;2023-12-20T01:11:29;94911.25;;;2.53;70.79
33191;BME280;19554;42.652;23.364;2023-12-20T01:13:54;94854.34;;;2.17;70.51
33191;BME280;19554;42.652;23.364;2023-12-20T01:16:20;94902.34;;;2.54;70.05
33191;BME280;19554;42.652;23.364;2023-12-20T01:18:46;94908.84;;;2.51;69.41
33191;BME280;19554;42.652;23.364;2023-12-20T01:21:11;94899.69;;;2.42;68.47
33191;BME280;19554;42.652;23.364;2023-12-20T01:23:37;94834.53;;;2.02;68.71
33191;BME280;19554;42.652;23.364;2023-12-20T01:26:02;94901.66;;;2.47;69.27
33191;BME280;19554;42.652;23.364;2023-12-20T01:28:29;94891.13;;;2.47;69.17
33191;BME280;19554;42.652;23.364;2023-12-20T01:30:55;94889.81;;;2.49;69.20
33191;BME280;19554;42.652;23.364;2023-12-20T01:33:20;94879.19;;;2.44;69.22
33191;BME280;19554;42.652;23.364;2023-12-20T01:35:46;94875.41;;;2.40;68.65
33191;BME280;19554;42.652;23.364;2023-12-20T01:38:11;94880.56;;;2.47;68.52
33191;BME280;19554;42.652;23.364;2023-12-20T01:40:37;94876.09;;;2.47;69.69
33191;BME280;19554;42.652;23.364;2023-12-20T01:43:07;94870.16;;;2.40;69.59
33191;BME280;19554;42.652;23.364;2023-12-20T01:45:34;94878.59;;;2.42;69.36
33191;BME280;19554;42.652;23.364;2023-12-20T01:47:59;94870.16;;;2.40;69.67
33191;BME280;19554;42.652;23.364;2023-12-20T01:50:27;94862.00;;;2.42;68.63
33191;BME280;19554;42.652;23.364;2023-12-20T01:52:55;94826.75;;;2.19;68.74
33191;BME280;19554;42.652;23.364;2023-12-20T01:55:23;94852.16;;;2.37;69.58
33191;BME280;19554;42.652;23.364;2023-12-20T01:57:49;94847.22;;;2.29;70.29
33191;BME280;19554;42.652;23.364;2023-12-20T02:00:16;94820.66;;;2.19;70.50
33191;BME280;19554;42.652;23.364;2023-12-20T02:02:43;94852.25;;;2.42;70.04
33191;BME280;19554;42.652;23.364;2023-12-20T02:05:09;94819.53;;;2.26;70.15
33191;BME280;19554;42.652;23.364;2023-12-20T02:07:35;94847.34;;;2.46;70.36
33191;BME280;19554;42.652;23.364;2023-12-20T02:10:01;94839.22;;;2.47;70.41
33191;BME280;19554;42.652;23.364;2023-12-20T02:12:27;94747.09;;;1.88;69.80
33191;BME280;19554;42.652;23.364;2023-12-20T02:14:52;94833.94;;;2.47;69.36
33191;BME280;19554;42.652;23.364;2023-12-20T02:17:19;94825.34;;;2.52;69.46
33191;BME280;19554;42.652;23.364;2023-12-20T02:19:45;94830.75;;;2.45;68.07
33191;BME280;19554;42.652;23.364;2023-12-20T02:22:11;94829.03;;;2.39;67.10
33191;BME280;19554;42.652;23.364;2023-12-20T02:24:37;94815.63;;;2.29;67.82
33191;BME280;19554;42.652;23.364;2023-12-20T02:27:03;94805.78;;;2.24;68.42
33191;BME280;19554;42.652;23.364;2023-12-20T02:29:30;94757.75;;;1.82;68.32
33191;BME280;19554;42.652;23.364;2023-12-20T02:31:56;94818.63;;;2.21;68.60
33191;BME280;19554;42.652;23.364;2023-12-20T02:34:21;94811.31;;;2.23;68.18
33191;BME280;19554;42.652;23.364;2023-12-20T02:36:47;94725.25;;;1.64;68.70
33191;BME280;19554;42.652;23.364;2023-12-20T02:39:12;94808.09;;;2.21;69.03
33191;BME280;19554;42.652;23.364;2023-12-20T02:41:38;94804.66;;;2.08;68.33
33191;BME280;19554;42.652;23.364;2023-12-20T02:44:04;94755.22;;;1.63;68.01
33191;BME280;19554;42.652;23.364;2023-12-20T02:46:29;94791.13;;;1.70;67.93
33191;BME280;19554;42.652;23.364;2023-12-20T02:48:54;94799.69;;;1.53;68.65
33191;BME280;19554;42.652;23.364;2023-12-20T02:51:20;94810.53;;;1.45;68.55
33191;BME280;19554;42.652;23.364;2023-12-20T02:53:45;94803.00;;;1.37;69.16
33191;BME280;19554;42.652;23.364;2023-12-20T02:56:11;94800.91;;;1.39;68.68
33191;BME280;19554;42.652;23.364;2023-12-20T02:58:36;94746.34;;;0.81;68.77
33191;BME280;19554;42.652;23.364;2023-12-20T03:01:02;94791.59;;;1.13;70.30
33191;BME280;19554;42.652;23.364;2023-12-20T03:03:28;94795.06;;;1.25;70.12
33191;BME280;19554;42.652;23.364;2023-12-20T03:05:53;94806.38;;;1.26;69.91
33191;BME280;19554;42.652;23.364;2023-12-20T03:08:19;94712.06;;;0.76;69.60
33191;BME280;19554;42.652;23.364;2023-12-20T03:10:44;94758.69;;;1.10;69.73
33191;BME280;19554;42.652;23.364;2023-12-20T03:13:10;94806.63;;;1.36;68.85
33191;BME280;19554;42.652;23.364;2023-12-20T03:15:35;94741.63;;;1.01;68.22
33191;BME280;19554;42.652;23.364;2023-12-20T03:18:01;94791.75;;;1.30;67.67
33191;BME280;19554;42.652;23.364;2023-12-20T03:20:26;94794.50;;;1.35;68.15
33191;BME280;19554;42.652;23.364;2023-12-20T03:22:52;94794.06;;;1.38;68.87
33191;BME280;19554;42.652;23.364;2023-12-20T03:25:17;94806.09;;;1.46;69.37
33191;BME280;19554;42.652;23.364;2023-12-20T03:27:43;94698.16;;;0.87;69.44
33191;BME280;19554;42.652;23.364;2023-12-20T03:30:08;94790.09;;;1.59;68.82
33191;BME280;19554;42.652;23.364;2023-12-20T03:32:34;94787.81;;;1.62;68.86
33191;BME280;19554;42.652;23.364;2023-12-20T03:35:00;94785.19;;;1.62;68.23
33191;BME280;19554;42.652;23.364;2023-12-20T03:37:25;94790.44;;;1.62;68.61
33191;BME280;19554;42.652;23.364;2023-12-20T03:39:51;94789.31;;;1.58;67.99
33191;BME280;19554;42.652;23.364;2023-12-20T03:42:16;94785.63;;;1.59;67.95
33191;BME280;19554;42.652;23.364;2023-12-20T03:44:42;94727.16;;;1.22;67.72
33191;BME280;19554;42.652;23.364;2023-12-20T03:47:07;94785.88;;;1.58;67.94
33191;BME280;19554;42.652;23.364;2023-12-20T03:49:33;94783.25;;;1.58;68.15
33191;BME280;19554;42.652;23.364;2023-12-20T03:51:58;94762.75;;;1.48;68.37
33191;BME280;19554;42.652;23.364;2023-12-20T03:54:24;94780.03;;;1.56;69.05
33191;BME280;19554;42.652;23.364;2023-12-20T03:56:49;94775.13;;;1.59;70.22
33191;BME280;19554;42.652;23.364;2023-12-20T03:59:15;94666.19;;;0.90;69.14
33191;BME280;19554;42.652;23.364;2023-12-20T04:01:44;94697.31;;;1.16;68.24
33191;BME280;19554;42.652;23.364;2023-12-20T04:04:10;94767.22;;;1.59;68.10
33191;BME280;19554;42.652;23.364;2023-12-20T04:06:36;94766.66;;;1.57;67.72
33191;BME280;19554;42.652;23.364;2023-12-20T04:09:01;94762.75;;;1.48;67.43
33191;BME280;19554;42.652;23.364;2023-12-20T04:11:27;94767.66;;;1.45;67.53
33191;BME280;19554;42.652;23.364;2023-12-20T04:13:52;94749.81;;;1.35;68.37
33191;BME280;19554;42.652;23.364;2023-12-20T04:16:18;94749.72;;;1.41;68.86
33191;BME280;19554;42.652;23.364;2023-12-20T04:18:43;94743.06;;;1.39;68.10
33191;BME280;19554;42.652;23.364;2023-12-20T04:21:09;94746.72;;;1.38;68.91
33191;BME280;19554;42.652;23.364;2023-12-20T04:23:34;94755.66;;;1.37;69.43
33191;BME280;19554;42.652;23.364;2023-12-20T04:26:00;94754.19;;;1.41;70.43
33191;BME280;19554;42.652;23.364;2023-12-20T04:28:25;94709.44;;;1.17;68.25
33191;BME280;19554;42.652;23.364;2023-12-20T04:30:51;94688.16;;;1.07;68.49
33191;BME280;19554;42.652;23.364;2023-12-20T04:33:16;94731.66;;;1.45;67.97
33191;BME280;19554;42.652;23.364;2023-12-20T04:35:41;94727.97;;;1.46;67.54
33191;BME280;19554;42.652;23.364;2023-12-20T04:38:08;94726.97;;;1.47;69.43
33191;BME280;19554;42.652;23.364;2023-12-20T04:40:34;94721.13;;;1.45;70.61
33191;BME280;19554;42.652;23.364;2023-12-20T04:42:59;94719.97;;;1.41;68.75
33191;BME280;19554;42.652;23.364;2023-12-20T04:45:25;94721.94;;;1.34;67.44
33191;BME280;19554;42.652;23.364;2023-12-20T04:47:51;94735.75;;;1.41;67.83
33191;BME280;19554;42.652;23.364;2023-12-20T04:50:17;94706.47;;;1.26;68.05
33191;BME280;19554;42.652;23.364;2023-12-20T04:52:42;94723.38;;;1.30;67.19
33191;BME280;19554;42.652;23.364;2023-12-20T04:55:08;94721.44;;;1.13;67.83
33191;BME280;19554;42.652;23.364;2023-12-20T04:57:35;94723.09;;;0.96;67.44
33191;BME280;19554;42.652;23.364;2023-12-20T05:00:00;94720.75;;;0.76;67.21
33191;BME280;19554;42.652;23.364;2023-12-20T05:02:26;94717.41;;;0.39;68.04
33191;BME280;19554;42.652;23.364;2023-12-20T05:04:51;94709.56;;;-0.16;72.23
33191;BME280;19554;42.652;23.364;2023-12-20T05:07:16;94728.66;;;-0.09;72.36
33191;BME280;19554;42.652;23.364;2023-12-20T05:09:42;94721.34;;;-0.26;72.71
33191;BME280;19554;42.652;23.364;2023-12-20T05:12:08;94715.19;;;-0.38;72.53
33191;BME280;19554;42.652;23.364;2023-12-20T05:14:33;94718.72;;;-0.44;73.47
33191;BME280;19554;42.652;23.364;2023-12-20T05:16:59;94644.94;;;-0.91;73.47
33191;BME280;19554;42.652;23.364;2023-12-20T05:19:24;94673.66;;;-0.78;73.99
33191;BME280;19554;42.652;23.364;2023-12-20T05:21:50;94657.69;;;-0.76;74.30
33191;BME280;19554;42.652;23.364;2023-12-20T05:24:15;94697.75;;;-0.44;72.65
33191;BME280;19554;42.652;23.364;2023-12-20T05:26:41;94612.06;;;-1.12;73.23
33191;BME280;19554;42.652;23.364;2023-12-20T05:29:06;94708.78;;;-0.60;74.27
33191;BME280;19554;42.652;23.364;2023-12-20T05:31:32;94704.97;;;-0.89;76.06
33191;BME280;19554;42.652;23.364;2023-12-20T05:33:57;94706.22;;;-0.92;77.21
33191;BME280;19554;42.652;23.364;2023-12-20T05:36:23;94703.84;;;-1.00;78.29
33191;BME280;19554;42.652;23.364;2023-12-20T05:38:49;94704.69;;;-1.06;78.83
33191;BME280;19554;42.652;23.364;2023-12-20T05:41:14;94710.53;;;-1.04;79.64
33191;BME280;19554;42.652;23.364;2023-12-20T05:43:40;94703.88;;;-1.07;79.89
33191;BME280;19554;42.652;23.364;2023-12-20T05:46:05;94677.38;;;-1.17;80.38
33191;BME280;19554;42.652;23.364;2023-12-20T05:48:30;94681.38;;;-1.14;80.64
33191;BME280;19554;42.652;23.364;2023-12-20T05:50:56;94698.03;;;-0.77;80.01
33191;BME280;19554;42.652;23.364;2023-12-20T05:53:22;94687.38;;;-0.82;79.61
33191;BME280;19554;42.652;23.364;2023-12-20T05:55:48;94695.50;;;-0.65;79.66
33191;BME280;19554;42.652;23.364;2023-12-20T05:58:13;94673.53;;;-0.46;78.98
33191;BME280;19554;42.652;23.364;2023-12-20T06:00:39;94659.34;;;-0.38;77.73
33191;BME280;19554;42.652;23.364;2023-12-20T06:03:04;94674.38;;;-0.09;76.64
33191;BME280;19554;42.652;23.364;2023-12-20T06:05:30;94669.13;;;-0.09;75.63
33191;BME280;19554;42.652;23.364;2023-12-20T06:07:56;94675.88;;;-0.01;75.01
33191;BME280;19554;42.652;23.364;2023-12-20T06:10:26;94681.84;;;0.06;75.50
33191;BME280;19554;42.652;23.364;2023-12-20T06:12:52;94632.47;;;-0.15;75.59
33191;BME280;19554;42.652;23.364;2023-12-20T06:15:18;94671.94;;;0.08;75.62
33191;BME280;19554;42.652;23.364;2023-12-20T06:17:43;94609.09;;;-0.35;75.07
33191;BME280;19554;42.652;23.364;2023-12-20T06:20:09;94693.22;;;0.18;73.71
33191;BME280;19554;42.652;23.364;2023-12-20T06:22:36;94686.94;;;0.19;71.86
33191;BME280;19554;42.652;23.364;2023-12-20T06:25:02;94695.84;;;0.18;71.44
33191;BME280;19554;42.652;23.364;2023-12-20T06:27:28;94689.72;;;0.25;71.56
33191;BME280;19554;42.652;23.364;2023-12-20T06:29:54;94686.06;;;0.26;70.45
33191;BME280;19554;42.652;23.364;2023-12-20T06:32:19;94696.84;;;0.36;70.08
33191;BME280;19554;42.652;23.364;2023-12-20T06:34:45;94680.66;;;0.20;70.00
33191;BME280;19554;42.652;23.364;2023-12-20T06:37:10;94691.59;;;0.36;70.37
33191;BME280;19554;42.652;23.364;2023-12-20T06:39:36;94687.06;;;0.43;70.08
33191;BME280;19554;42.652;23.364;2023-12-20T06:42:02;94616.84;;;0.08;70.85
33191;BME280;19554;42.652;23.364;2023-12-20T06:44:27;94679.19;;;0.43;70.92
33191;BME280;19554;42.652;23.364;2023-12-20T06:46:53;94675.94;;;0.59;70.95
33191;BME280;19554;42.652;23.364;2023-12-20T06:49:18;94672.19;;;0.67;71.03
33191;BME280;19554;42.652;23.364;2023-12-20T06:51:44;94652.09;;;0.73;70.71
33191;BME280;19554;42.652;23.364;2023-12-20T06:54:09;94662.53;;;0.91;70.47
33191;BME280;19554;42.652;23.364;2023-12-20T06:56:35;94662.78;;;1.01;70.08
33191;BME280;19554;42.652;23.364;2023-12-20T06:59:00;94662.56;;;1.14;69.55
33191;BME280;19554;42.652;23.364;2023-12-20T07:01:26;94636.16;;;1.09;69.19
33191;BME280;19554;42.652;23.364;2023-12-20T07:03:51;94625.75;;;0.91;69.69
33191;BME280;19554;42.652;23.364;2023-12-20T07:06:17;94653.50;;;0.99;71.01
33191;BME280;19554;42.652;23.364;2023-12-20T07:08:42;94648.59;;;1.02;72.10
33191;BME280;19554;42.652;23.364;2023-12-20T07:11:08;94634.94;;;1.24;70.69
33191;BME280;19554;42.652;23.364;2023-12-20T07:13:33;94631.25;;;1.48;70.43
33191;BME280;19554;42.652;23.364;2023-12-20T07:15:59;94643.63;;;2.00;69.84
33191;BME280;19554;42.652;23.364;2023-12-20T07:18:24;94633.84;;;2.24;69.10
33191;BME280;19554;42.652;23.364;2023-12-20T07:20:50;94633.38;;;2.27;68.68
33191;BME280;19554;42.652;23.364;2023-12-20T07:23:15;94620.19;;;2.55;67.92
33191;BME280;19554;42.652;23.364;2023-12-20T07:25:41;94604.25;;;2.79;66.60
33191;BME280;19554;42.652;23.364;2023-12-20T07:28:06;94625.66;;;2.99;66.50
33191;BME280;19554;42.652;23.364;2023-12-20T07:30:32;94630.59;;;2.79;67.42
33191;BME280;19554;42.652;23.364;2023-12-20T07:32:57;94614.94;;;2.72;68.17
33191;BME280;19554;42.652;23.364;2023-12-20T07:35:23;94626.28;;;2.73;67.35
33191;BME280;19554;42.652;23.364;2023-12-20T07:37:49;94627.50;;;1.96;70.08
33191;BME280;19554;42.652;23.364;2023-12-20T07:40:14;94562.75;;;1.55;70.63
33191;BME280;19554;42.652;23.364;2023-12-20T07:42:42;94633.66;;;1.61;72.78
33191;BME280;19554;42.652;23.364;2023-12-20T07:45:08;94633.31;;;1.58;73.53
33191;BME280;19554;42.652;23.364;2023-12-20T07:47:34;94641.75;;;1.60;73.44
33191;BME280;19554;42.652;23.364;2023-12-20T07:49:59;94627.16;;;1.40;73.85
33191;BME280;19554;42.652;23.364;2023-12-20T07:52:26;94534.25;;;1.00;73.45
33191;BME280;19554;42.652;23.364;2023-12-20T07:54:51;94614.31;;;1.56;73.58
33191;BME280;19554;42.652;23.364;2023-12-20T07:57:17;94620.75;;;1.25;74.16
33191;BME280;19554;42.652;23.364;2023-12-20T07:59:42;94624.38;;;1.00;76.47
33191;BME280;19554;42.652;23.364;2023-12-20T08:02:09;94568.94;;;0.78;77.76
33191;BME280;19554;42.652;23.364;2023-12-20T08:04:35;94623.47;;;1.30;77.17
33191;BME280;19554;42.652;23.364;2023-12-20T08:07:00;94547.94;;;0.78;76.80
33191;BME280;19554;42.652;23.364;2023-12-20T08:09:26;94611.13;;;1.18;77.56
33191;BME280;19554;42.652;23.364;2023-12-20T08:11:51;94612.69;;;1.66;77.38
33191;BME280;19554;42.652;23.364;2023-12-20T08:14:17;94618.41;;;1.63;76.98
33191;BME280;19554;42.652;23.364;2023-12-20T08:16:42;94607.09;;;1.63;76.90
33191;BME280;19554;42.652;23.364;2023-12-20T08:19:08;94606.34;;;1.51;77.10
33191;BME280;19554;42.652;23.364;2023-12-20T08:21:34;94513.91;;;1.07;77.20
33191;BME280;19554;42.652;23.364;2023-12-20T08:23:59;94597.94;;;1.65;77.41
33191;BME280;19554;42.652;23.364;2023-12-20T08:26:26;94604.94;;;1.48;77.60
33191;BME280;19554;42.652;23.364;2023-12-20T08:28:51;94593.09;;;1.74;78.52
33191;BME280;19554;42.652;23.364;2023-12-20T08:31:18;94544.16;;;1.73;76.98
33191;BME280;19554;42.652;23.364;2023-12-20T08:33:44;94575.34;;;1.93;76.73
33191;BME280;19554;42.652;23.364;2023-12-20T08:36:11;94576.66;;;2.07;76.39
33191;BME280;19554;42.652;23.364;2023-12-20T08:38:36;94576.66;;;2.07;76.23
33191;BME280;19554;42.652;23.364;2023-12-20T08:41:02;94498.25;;;1.52;76.50
33191;BME280;19554;42.652;23.364;2023-12-20T08:43:30;94575.47;;;1.86;77.20
33191;BME280;19554;42.652;23.364;2023-12-20T08:45:56;94569.28;;;1.93;77.67
33191;BME280;19554;42.652;23.364;2023-12-20T08:48:21;94562.38;;;1.75;78.06
33191;BME280;19554;42.652;23.364;2023-12-20T08:50:47;94565.06;;;1.80;78.40
33191;BME280;19554;42.652;23.364;2023-12-20T08:53:14;94530.72;;;1.58;78.86
33191;BME280;19554;42.652;23.364;2023-12-20T08:55:41;94574.22;;;1.89;79.10
33191;BME280;19554;42.652;23.364;2023-12-20T08:58:06;94532.44;;;1.52;79.55
33191;BME280;19554;42.652;23.364;2023-12-20T09:00:33;94561.88;;;1.78;79.38
33191;BME280;19554;42.652;23.364;2023-12-20T09:02:59;94559.75;;;1.63;79.43
33191;BME280;19554;42.652;23.364;2023-12-20T09:05:25;94555.91;;;1.82;79.63
33191;BME280;19554;42.652;23.364;2023-12-20T09:07:50;94542.91;;;1.76;79.58
33191;BME280;19554;42.652;23.364;2023-12-20T09:10:16;94532.75;;;1.68;79.81
33191;BME280;19554;42.652;23.364;2023-12-20T09:12:47;94524.50;;;1.64;80.42
33191;BME280;19554;42.652;23.364;2023-12-20T09:15:13;94483.19;;;1.48;80.71
33191;BME280;19554;42.652;23.364;2023-12-20T09:17:38;94500.75;;;1.59;81.35
33191;BME280;19554;42.652;23.364;2023-12-20T09:20:05;94501.72;;;1.70;81.29
33191;BME280;19554;42.652;23.364;2023-12-20T09:22:33;94499.69;;;1.72;80.81
33191;BME280;19554;42.652;23.364;2023-12-20T09:24:59;94502.34;;;1.60;81.48
33191;BME280;19554;42.652;23.364;2023-12-20T09:27:24;94475.22;;;1.59;82.12
33191;BME280;19554;42.652;23.364;2023-12-20T09:29:49;94476.63;;;1.50;82.46
33191;BME280;19554;42.652;23.364;2023-12-20T09:32:15;94472.53;;;1.54;82.94
33191;BME280;19554;42.652;23.364;2023-12-20T09:34:40;94468.38;;;1.58;82.40
33191;BME280;19554;42.652;23.364;2023-12-20T09:37:07;94457.72;;;1.65;82.44
33191;BME280;19554;42.652;23.364;2023-12-20T09:39:33;94444.72;;;1.58;82.59
33191;BME280;19554;42.652;23.364;2023-12-20T09:42:03;94388.47;;;1.31;83.07
33191;BME280;19554;42.652;23.364;2023-12-20T09:44:30;94449.75;;;1.77;82.97
33191;BME280;19554;42.652;23.364;2023-12-20T09:46:57;94442.81;;;1.71;82.73
33191;BME280;19554;42.652;23.364;2023-12-20T09:49:23;94439.72;;;1.74;82.76
33191;BME280;19554;42.652;23.364;2023-12-20T09:51:50;94437.47;;;1.65;82.85
33191;BME280;19554;42.652;23.364;2023-12-20T09:54:17;94402.22;;;1.66;82.72
33191;BME280;19554;42.652;23.364;2023-12-20T09:56:43;94421.09;;;1.92;82.71
33191;BME280;19554;42.652;23.364;2023-12-20T09:59:09;94391.41;;;1.80;81.89
33191;BME280;19554;42.652;23.364;2023-12-20T10:01:35;94421.91;;;2.09;82.38
33191;BME280;19554;42.652;23.364;2023-12-20T10:04:05;94344.16;;;1.85;82.40
33191;BME280;19554;42.652;23.364;2023-12-20T10:06:36;94377.53;;;2.35;80.80
33191;BME280;19554;42.652;23.364;2023-12-20T10:09:02;94392.34;;;2.58;80.30
33191;BME280;19554;42.652;23.364;2023-12-20T10:11:27;94388.75;;;2.86;79.67
33191;BME280;19554;42.652;23.364;2023-12-20T10:13:59;94378.03;;;2.71;78.65
33191;BME280;19554;42.652;23.364;2023-12-20T10:16:25;94359.16;;;2.40;79.02
33191;BME280;19554;42.652;23.364;2023-12-20T10:18:53;94399.63;;;2.73;79.43
33191;BME280;19554;42.652;23.364;2023-12-20T10:21:18;94366.75;;;2.75;79.08
33191;BME280;19554;42.652;23.364;2023-12-20T10:23:45;94359.72;;;2.81;78.35
33191;BME280;19554;42.652;23.364;2023-12-20T10:26:19;94322.13;;;2.69;78.22
33191;BME280;19554;42.652;23.364;2023-12-20T10:28:45;94377.81;;;3.21;78.01
33191;BME280;19554;42.652;23.364;2023-12-20T10:31:10;94364.06;;;3.41;77.56
33191;BME280;19554;42.652;23.364;2023-12-20T10:33:50;94359.28;;;3.38;77.08
33191;BME280;19554;42.652;23.364;2023-12-20T10:36:16;94365.25;;;3.55;76.44
33191;BME280;19554;42.652;23.364;2023-12-20T10:38:42;94362.56;;;3.50;76.36
33191;BME280;19554;42.652;23.364;2023-12-20T10:41:08;94320.56;;;3.17;76.86
33191;BME280;19554;42.652;23.364;2023-12-20T10:43:35;94332.41;;;3.41;76.51
33191;BME280;19554;42.652;23.364;2023-12-20T10:46:03;94221.75;;;2.97;76.59
33191;BME280;19554;42.652;23.364;2023-12-20T10:48:30;94325.34;;;3.79;74.86
33191;BME280;19554;42.652;23.364;2023-12-20T10:50:57;94336.63;;;4.01;74.55
33191;BME280;19554;42.652;23.364;2023-12-20T10:53:24;94335.56;;;4.02;74.10
33191;BME280;19554;42.652;23.364;2023-12-20T10:55:52;94328.03;;;3.84;74.93
33191;BME280;19554;42.652;23.364;2023-12-20T10:58:21;94324.72;;;3.67;75.67
33191;BME280;19554;42.652;23.364;2023-12-20T11:00:50;94298.88;;;3.37;76.16
33191;BME280;19554;42.652;23.364;2023-12-20T11:03:19;94301.75;;;3.35;76.71
33191;BME280;19554;42.652;23.364;2023-12-20T11:06:01;94315.00;;;3.40;77.94
33191;BME280;19554;42.652;23.364;2023-12-20T11:08:39;94293.66;;;3.15;78.26
33191;BME280;19554;42.652;23.364;2023-12-20T11:11:23;94297.88;;;3.16;78.62
33191;BME280;19554;42.652;23.364;2023-12-20T11:14:02;94308.22;;;3.22;78.69
33191;BME280;19554;42.652;23.364;2023-12-20T11:16:28;94278.22;;;3.01;78.96
33191;BME280;19554;42.652;23.364;2023-12-20T11:18:56;94276.56;;;2.95;79.36
33191;BME280;19554;42.652;23.364;2023-12-20T11:21:21;94253.50;;;2.80;79.64
33191;BME280;19554;42.652;23.364;2023-12-20T11:23:47;94278.84;;;2.87;80.20
33191;BME280;19554;42.652;23.364;2023-12-20T11:26:15;94292.31;;;2.90;81.03
33191;BME280;19554;42.652;23.364;2023-12-20T11:28:41;94246.31;;;2.76;80.76
33191;BME280;19554;42.652;23.364;2023-12-20T11:31:06;94263.44;;;3.00;80.27
33191;BME280;19554;42.652;23.364;2023-12-20T11:35:58;94215.78;;;2.80;80.27
33191;BME280;19554;42.652;23.364;2023-12-20T11:38:25;94239.47;;;3.02;80.59
33191;BME280;19554;42.652;23.364;2023-12-20T11:40:50;94213.22;;;2.85;80.68
33191;BME280;19554;42.652;23.364;2023-12-20T11:43:38;94240.28;;;3.07;81.06
33191;BME280;19554;42.652;23.364;2023-12-20T11:48:51;94214.75;;;3.08;80.79
33191;BME280;19554;42.652;23.364;2023-12-20T11:51:17;94208.50;;;3.19;80.78
33191;BME280;19554;42.652;23.364;2023-12-20T11:53:42;94213.59;;;3.31;80.36
33191;BME280;19554;42.652;23.364;2023-12-20T11:56:08;94206.25;;;3.33;80.15
33191;BME280;19554;42.652;23.364;2023-12-20T11:58:34;94203.72;;;3.48;79.84
33191;BME280;19554;42.652;23.364;2023-12-20T12:01:00;94128.13;;;3.27;79.12
33191;BME280;19554;42.652;23.364;2023-12-20T12:03:27;94187.06;;;3.80;78.49
33191;BME280;19554;42.652;23.364;2023-12-20T12:05:53;94090.63;;;3.20;78.02
33191;BME280;19554;42.652;23.364;2023-12-20T12:08:19;94182.63;;;3.91;78.46
33191;BME280;19554;42.652;23.364;2023-12-20T12:10:45;94124.94;;;3.67;77.88
33191;BME280;19554;42.652;23.364;2023-12-20T12:13:10;94178.19;;;4.01;78.00
33191;BME280;19554;42.652;23.364;2023-12-20T12:15:36;94178.75;;;4.09;78.01
33191;BME280;19554;42.652;23.364;2023-12-20T12:18:03;94159.47;;;4.08;77.73
33191;BME280;19554;42.652;23.364;2023-12-20T12:20:29;94163.41;;;4.06;77.62
33191;BME280;19554;42.652;23.364;2023-12-20T12:23:01;94169.00;;;4.14;77.40
33191;BME280;19554;42.652;23.364;2023-12-20T12:25:29;94147.78;;;3.99;76.76
33191;BME280;19554;42.652;23.364;2023-12-20T12:27:56;94157.94;;;4.17;76.88
33191;BME280;19554;42.652;23.364;2023-12-20T12:30:21;94142.88;;;4.18;76.75
33191;BME280;19554;42.652;23.364;2023-12-20T12:32:47;94151.34;;;4.25;76.59
33191;BME280;19554;42.652;23.364;2023-12-20T12:35:14;94147.09;;;4.19;76.99
33191;BME280;19554;42.652;23.364;2023-12-20T12:37:40;94145.03;;;4.31;76.50
33191;BME280;19554;42.652;23.364;2023-12-20T12:40:11;94138.72;;;4.47;75.66
33191;BME280;19554;42.652;23.364;2023-12-20T12:42:37;94122.88;;;4.47;75.96
33191;BME280;19554;42.652;23.364;2023-12-20T12:45:03;94129.78;;;4.59;75.23
33191;BME280;19554;42.652;23.364;2023-12-20T12:47:29;94133.47;;;4.68;75.13
33191;BME280;19554;42.652;23.364;2023-12-20T12:49:55;94133.69;;;4.51;75.21
33191;BME280;19554;42.652;23.364;2023-12-20T12:52:21;94119.47;;;4.52;74.95
33191;BME280;19554;42.652;23.364;2023-12-20T12:54:47;94129.78;;;4.59;74.93
33191;BME280;19554;42.652;23.364;2023-12-20T12:57:14;94132.66;;;4.47;75.38
33191;BME280;19554;42.652;23.364;2023-12-20T12:59:40;94127.53;;;4.20;76.64